Central Wisconsin Airport Mosinee US
ICAO: KCWA
IATA: CWA
Category: Medium
Scheduled Services: No

Elevation: 1277 ft
TransAlt. 18000 ft.

Airport Communications:
ATIS:127.45
AWOS 3:127.45
MINNEAPOLIS CNTR:124.4
CTAF:119.75
GND:121.9
GREEN BAY RDO:122.525
TWR:119.75
UNICOM:122.95

KCWA Zoom In..

If you have problems with the map follow the link
https://www.worldairports.se/pages/airport.php?
ICAO=KCWA

Runways:

(A) RW 08 length 7648 ft width 150 ft
ILS 110.30 / hdg 77

(B) RW 17 length 6501 ft width 150 ft
---- / hdg 170

(C) RW 26 length 7648 ft width 150 ft
---- / hdg 257

(D) RW 35 length 6501 ft width 150 ft
ILS 110.90 / hdg 350

Location; KCWA
Day. 06 / Time. 12.45 Zulu
* Altimeter: 30.19
* Temperature: -03° c. -26.6°f.
* Wind from: 320° Speed 11 kn.
Dewpoint: -07° c.
Visibility: 10 Statute Miles.
Clouds: Overcast 2500 ft.

KCWA 061245Z 32011KT 10SM OVC025 M03/M07 A3019


Wind From 320°
Speed 11 kn.

 
 
jpsmedia worldairports.se 2019   terms of use